Nearby METAR Reports

 

KPBI - West Palm Beach, Florida, USA
Distance from station: NNE 9mi, 14km
Updated: Tue, 21-Sep-2021 6:53pm EDT
Light rain, Mostly cloudy
Light rain, Mostly cloudy
 Wind from N
Wind: N 5 mph , 7 km/h
Temperature: 81°F , 27°C
Heat Index: 88°F , 31°C
Dew Point: 77°F , 25°C
Humidity: 89%
Barometer: 30.02 inHg , 1016.6 hPa
Summary: Light rain
Clouds: Mostly cloudy
Visibility: 10 miles , 16 km
Cloud details: Partly cloudy 2200 ft
Partly cloudy 7000 ft
Mostly cloudy 15000 ft
2021/09/21 22:53 KPBI 212253Z 01004KT 10SM -RA SCT022 SCT070 BKN150 27/25 A3002 RMK AO2 RAE25B50 SLP165 CB DSNT SE SW-W P0002 T02720250 $
KBCT - Boca Raton, Florida, USA
Distance from station: SSE 13mi, 21km
Updated: Tue, 21-Sep-2021 6:47pm EDT
Few Clouds
Few Clouds
 Wind from NE
Wind: NE 7 mph , 11 km/h
Temperature: 81°F , 27°C
Heat Index: 89°F , 32°C
Dew Point: 79°F , 26°C
Humidity: 94%
Barometer: 30.01 inHg , 1016.3 hPa
Clouds: Few Clouds
Visibility: 7 miles , 11 km
Cloud details: Few Clouds 1700 ft
2021/09/21 22:47 KBCT 212247Z 04006KT 7SM FEW017 27/26 A3001
 
KPMP - Pompano Beach, Florida, USA
Distance from station: S 22mi, 36km
Updated: Tue, 21-Sep-2021 7:19pm EDT
Light rain, Partly cloudy
Light rain, Partly cloudy
 Wind from N
Wind: N 5 mph , 7 km/h
Temperature: 81°F , 27°C
Heat Index: 87°F , 31°C
Dew Point: 75°F , 24°C
Humidity: 84%
Barometer: 30.00 inHg , 1015.9 hPa
Summary: Light rain
Clouds: Partly cloudy
Visibility: 10 miles , 16 km
Cloud details: Few Clouds 1400 ft
Partly cloudy 4400 ft
Partly cloudy 8000 ft
2021/09/21 23:19 KPMP 212319Z 36004KT 10SM -RA FEW014 SCT044 SCT080 27/24 A3000 RMK AO2 RAB00 P0000 T02720244
KFXE - Ft Lauderd/Exec, Florida, USA
Distance from station: S 25mi, 41km
Updated: Tue, 21-Sep-2021 7:36pm EDT
Light rain, Mostly cloudy
Light rain, Mostly cloudy
 Wind from W
Wind: W 5 mph , 7 km/h
Temperature: 77°F , 25°C
Dew Point: 73°F , 23°C
Humidity: 89%
Barometer: 30.01 inHg , 1016.3 hPa
Summary: Light rain
Clouds: Mostly cloudy
Visibility: 10 miles , 16 km
Cloud details: Few Clouds 1400 ft
Mostly cloudy 2000 ft
2021/09/21 23:36 KFXE 212336Z 28004KT 10SM -RA FEW014 BKN020 25/23 A3001 RMK AO2 RAB03 P0000 T02500228
 
KFLL - Ft Lauderd/Holly, Florida, USA
Distance from station: S 35mi, 56km
Updated: Tue, 21-Sep-2021 7:25pm EDT
Overcast
Overcast
 Wind from NNW
Wind: NNW 6 mph , 9 km/h
Temperature: 79°F , 26°C
Dew Point: 75°F , 24°C
Humidity: 89%
Barometer: 30.00 inHg , 1015.9 hPa
Clouds: Overcast
Visibility: 10 miles , 16 km
Cloud details: Few Clouds 2100 ft
Mostly cloudy 13000 ft
Overcast 19000 ft
2021/09/21 23:25 KFLL 212325Z 34005KT 10SM FEW021 BKN130 OVC190 26/24 A3000 RMK AO2 CB DSNT E AND SE MOV NW T02610244
KHWO - Hollywood, Florida, USA
Distance from station: S 39mi, 64km
Updated: Tue, 21-Sep-2021 7:25pm EDT
Clear
Clear
 Wind from NNW
Wind: NNW 8 mph , 13 km/h
Temperature: 75°F , 24°C
Dew Point: 73°F , 23°C
Humidity: 94%
Barometer: 30.02 inHg , 1016.6 hPa
Clouds: Clear
Visibility: 10 miles , 16 km
2021/09/21 23:25 KHWO 212325Z AUTO 33007KT 10SM CLR 24/23 A3002 RMK AO2 T02440228 $
 
KSUA - Stuart/Witham, Florida, USA
Distance from station: N 43mi, 69km
Updated: Tue, 21-Sep-2021 7:30pm EDT
Overcast
Overcast
 Wind from W
Wind: W 17 mph , 28 km/h
Temperature: 79°F , 26°C
Dew Point: 73°F , 23°C
Humidity: 84%
Barometer: 30.05 inHg , 1017.6 hPa
Clouds: Overcast
Visibility: 10 miles , 16 km
Cloud details: Mostly cloudy 1400 ft
Overcast 6000 ft
2021/09/21 23:30 KSUA 212330Z 27015KT 10SM BKN014 OVC060 26/23 A3005 RMK WSHFT 2228Z CEILOMETER OTS
KOPF - Miami/Opa Locka, Florida, USA
Distance from station: S 46mi, 73km
Updated: Tue, 21-Sep-2021 6:53pm EDT
Clear
Clear
 Wind from N
Wind: N 5 mph , 7 km/h
Temperature: 79°F , 26°C
Dew Point: 73°F , 23°C
Humidity: 84%
Barometer: 30.00 inHg , 1015.9 hPa
Clouds: Clear
Visibility: 10 miles , 16 km
2021/09/21 22:53 KOPF 212253Z 35004KT 10SM CLR 26/23 A3000 RMK AO2 LTG DSNT E RAE23 TSB05E28 SLP159 P0000 T02610228
 
KMIA - Miami, Florida, USA
Distance from station: S 54mi, 86km
Updated: Tue, 21-Sep-2021 6:53pm EDT
Overcast
Overcast
 Wind from N
Wind: N 5 mph , 7 km/h
Temperature: 82°F , 28°C
Heat Index: 89°F , 32°C
Dew Point: 75°F , 24°C
Humidity: 79%
Barometer: 29.99 inHg , 1015.6 hPa
Clouds: Overcast
Visibility: 10 miles , 16 km
Cloud details: Few Clouds 2000 ft
Partly cloudy 8500 ft
Overcast 20000 ft
2021/09/21 22:53 KMIA 212253Z 35004KT 10SM FEW020 SCT085 OVC200 28/24 A2999 RMK AO2 LTG DSNT E TSB18E45 SLP156 TS DSIPTD CB DSNT NE-E T02780239 $
KOBE - Okeechobee Cty, Florida, USA
Distance from station: NW 64mi, 104km
Updated: Tue, 21-Sep-2021 7:35pm EDT
Light rain, Mostly cloudy
Light rain, Mostly cloudy
 Wind from S
Wind: S 6 mph , 9 km/h
Temperature: 73°F , 23°C
Dew Point: 72°F , 22°C
Humidity: 94%
Barometer: 30.03 inHg , 1016.9 hPa
Summary: Light rain
Clouds: Mostly cloudy
Visibility: 9 miles , 14 km
Cloud details: Mostly cloudy 7000 ft
Mostly cloudy 12000 ft
2021/09/21 23:35 KOBE 212335Z AUTO 19005KT 9SM -RA BKN070 BKN120 23/22 A3003 RMK AO2 LTG DSNT SE
 
KFPR - Fort Pierce, Florida, USA
Distance from station: NNW 66mi, 106km
Updated: Tue, 21-Sep-2021 6:53pm EDT
Clear
Clear
 Wind from calm
Wind: Calm
Temperature: 79°F , 26°C
Dew Point: 75°F , 24°C
Humidity: 89%
Barometer: 30.01 inHg , 1016.3 hPa
Clouds: Clear
Visibility: 10 miles , 16 km
2021/09/21 22:53 KFPR 212253Z 00000KT 10SM CLR 26/24 A3001 RMK AO2 SLP163 T02610239
KTMB - Miami/Tamiami, Florida, USA
Distance from station: SSW 66mi, 106km
Updated: Tue, 21-Sep-2021 6:53pm EDT
Few Clouds
Few Clouds
 Wind from NNW
Wind: NNW 3 mph , 6 km/h
Temperature: 79°F , 26°C
Dew Point: 73°F , 23°C
Humidity: 84%
Barometer: 29.99 inHg , 1015.6 hPa
Clouds: Few Clouds
Visibility: 10 miles , 16 km
Cloud details: Few Clouds 2600 ft
2021/09/21 22:53 KTMB 212253Z 34003KT 10SM FEW026 26/23 A2999 RMK AO2 RAE18 SLP155 P0000 T02610233
 
KVRB - Vero Beach, Florida, USA
Distance from station: NNW 76mi, 123km
Updated: Tue, 21-Sep-2021 6:53pm EDT
Few Clouds
Few Clouds
 Wind from calm
Wind: Calm
Temperature: 81°F , 27°C
Heat Index: 87°F , 31°C
Dew Point: 75°F , 24°C
Humidity: 84%
Barometer: 30.02 inHg , 1016.6 hPa
Clouds: Few Clouds
Visibility: 10 miles , 16 km
Cloud details: Few Clouds 12000 ft
2021/09/21 22:53 KVRB 212253Z 00000KT 10SM FEW120 27/24 A3002 RMK AO2 SLP164 T02720239
KHST - Homestead Afb, Florida, USA
Distance from station: S 77mi, 124km
Updated: Tue, 21-Sep-2021 6:56pm EDT
Clear
Clear
 Wind from NNW
Wind: NNW 9 mph , 15 km/h
Temperature: 79°F , 26°C
Dew Point: 73°F , 23°C
Humidity: 84%
Barometer: 29.98 inHg , 1015.2 hPa
Clouds: Clear
Visibility: 10 miles , 16 km
2021/09/21 22:56 KHST 212256Z AUTO 33008KT 10SM CLR 26/23 A2998 RMK AO2 LTG DSNT SW SLP156 T02620228
 
KIMM - Immokalee, Florida, USA
Distance from station: W 77mi, 124km
Updated: Tue, 21-Sep-2021 7:35pm EDT
Overcast
Overcast
 Wind from E
Wind: E 7 mph , 11 km/h
Temperature: 73°F , 23°C
Dew Point: 73°F , 23°C
Humidity: 100%
Barometer: 30.01 inHg , 1016.3 hPa
Clouds: Overcast
Visibility: 9 miles , 14 km
Cloud details: Partly cloudy 3200 ft
Mostly cloudy 3900 ft
Overcast 7500 ft
2021/09/21 23:35 KIMM 212335Z AUTO 09006KT 9SM SCT032 BKN039 OVC075 23/23 A3001 RMK AO2 LTG DSNT E PWINO
MYGF - Freeport Intl A, Bahamas
Distance from station: E 90mi, 145km
Updated: Tue, 21-Sep-2021 7:00pm EDT
Nearby showers, Mostly cloudy
Nearby showers, Mostly cloudy
 Wind from NE
Wind: NE 10 mph , 17 km/h
Temperature: 81°F , 27°C
Heat Index: 87°F , 31°C
Dew Point: 75°F , 24°C
Humidity: 84%
Barometer: 30.00 inHg , 1015.9 hPa
Summary: Nearby Showers
Clouds: Mostly cloudy
Visibility: 6 miles , 10 km
Cloud details: Few Clouds 1500 ft
Partly cloudy 2000 ft
Mostly cloudy 15000 ft
2021/09/21 23:00 MYGF 212300Z 04009KT 9999 VCSH FEW015CB SCT020TCU BKN150 27/24 A3000
 
KSEF - Sebring, Florida, USA
Distance from station: NW 95mi, 153km
Updated: Tue, 21-Sep-2021 7:35pm EDT
Mostly cloudy
Mostly cloudy
 Wind from S
Wind: S 6 mph , 9 km/h
Temperature: 75°F , 24°C
Dew Point: 73°F , 23°C
Humidity: 94%
Barometer: 30.03 inHg , 1016.9 hPa
Clouds: Mostly cloudy
Visibility: 10 miles , 16 km
Cloud details: Mostly cloudy 1800 ft
Mostly cloudy 2500 ft
Mostly cloudy 3000 ft
2021/09/21 23:35 KSEF 212335Z AUTO 19005KT 10SM BKN018 BKN025 BKN030 24/23 A3003 RMK AO2 LTG DSNT SE T02420234
KRSW - Fort Myers, Florida, USA
Distance from station: W 98mi, 158km
Updated: Tue, 21-Sep-2021 7:01pm EDT
Partly cloudy
Partly cloudy
 Wind from E
Wind: E 8 mph , 13 km/h
Temperature: 73°F , 23°C
Dew Point: 72°F , 22°C
Humidity: 94%
Barometer: 30.02 inHg , 1016.6 hPa
Clouds: Partly cloudy
Visibility: 10 miles , 16 km
Cloud details: Few Clouds 500 ft
Partly cloudy 11000 ft
2021/09/21 23:01 KRSW 212301Z 09007KT 10SM FEW005 SCT110 23/22 A3002 RMK AO2 T02330222